sensor_id;sensor_type;location;lat;lon;timestamp;P1;durP1;ratioP1;P2;durP2;ratioP2
21543;SDS011;10933;50.754;11.508;2023-06-10T00:00:39;11.82;;;11.13;;
21543;SDS011;10933;50.754;11.508;2023-06-10T00:03:08;11.00;;;10.30;;
21543;SDS011;10933;50.754;11.508;2023-06-10T00:05:35;11.15;;;10.55;;
21543;SDS011;10933;50.754;11.508;2023-06-10T00:08:03;11.23;;;10.52;;
21543;SDS011;10933;50.754;11.508;2023-06-10T00:10:37;12.20;;;11.02;;
21543;SDS011;10933;50.754;11.508;2023-06-10T00:13:04;12.38;;;11.68;;
21543;SDS011;10933;50.754;11.508;2023-06-10T00:15:33;12.05;;;11.35;;
21543;SDS011;10933;50.754;11.508;2023-06-10T00:18:03;13.60;;;12.80;;
21543;SDS011;10933;50.754;11.508;2023-06-10T00:20:29;11.98;;;11.27;;
21543;SDS011;10933;50.754;11.508;2023-06-10T00:22:58;12.63;;;11.68;;
21543;SDS011;10933;50.754;11.508;2023-06-10T00:25:26;12.30;;;11.68;;
21543;SDS011;10933;50.754;11.508;2023-06-10T00:27:53;12.50;;;11.80;;
21543;SDS011;10933;50.754;11.508;2023-06-10T00:30:20;12.20;;;11.50;;
21543;SDS011;10933;50.754;11.508;2023-06-10T00:32:46;13.82;;;12.82;;
21543;SDS011;10933;50.754;11.508;2023-06-10T00:35:12;13.90;;;13.13;;
21543;SDS011;10933;50.754;11.508;2023-06-10T00:37:39;13.65;;;12.85;;
21543;SDS011;10933;50.754;11.508;2023-06-10T00:40:05;13.18;;;12.48;;
21543;SDS011;10933;50.754;11.508;2023-06-10T00:42:34;13.48;;;12.77;;
21543;SDS011;10933;50.754;11.508;2023-06-10T00:45:00;13.48;;;12.70;;
21543;SDS011;10933;50.754;11.508;2023-06-10T00:47:27;13.75;;;13.05;;
21543;SDS011;10933;50.754;11.508;2023-06-10T00:49:53;13.38;;;12.68;;
21543;SDS011;10933;50.754;11.508;2023-06-10T00:52:20;13.43;;;12.73;;
21543;SDS011;10933;50.754;11.508;2023-06-10T00:54:52;13.98;;;13.20;;
21543;SDS011;10933;50.754;11.508;2023-06-10T00:57:19;12.82;;;12.13;;
21543;SDS011;10933;50.754;11.508;2023-06-10T00:59:47;12.45;;;11.75;;
21543;SDS011;10933;50.754;11.508;2023-06-10T01:02:14;13.40;;;12.65;;
21543;SDS011;10933;50.754;11.508;2023-06-10T01:04:41;12.25;;;11.55;;
21543;SDS011;10933;50.754;11.508;2023-06-10T01:09:54;13.18;;;12.48;;
21543;SDS011;10933;50.754;11.508;2023-06-10T01:12:33;12.63;;;11.93;;
21543;SDS011;10933;50.754;11.508;2023-06-10T01:15:00;12.77;;;12.07;;
21543;SDS011;10933;50.754;11.508;2023-06-10T01:17:27;11.43;;;10.50;;
21543;SDS011;10933;50.754;11.508;2023-06-10T01:19:58;11.10;;;10.50;;
21543;SDS011;10933;50.754;11.508;2023-06-10T01:22:24;10.93;;;10.23;;
21543;SDS011;10933;50.754;11.508;2023-06-10T01:24:57;10.30;;;9.75;;
21543;SDS011;10933;50.754;11.508;2023-06-10T01:27:26;10.48;;;9.88;;
21543;SDS011;10933;50.754;11.508;2023-06-10T01:29:58;11.55;;;10.85;;
21543;SDS011;10933;50.754;11.508;2023-06-10T01:32:32;12.10;;;11.40;;
21543;SDS011;10933;50.754;11.508;2023-06-10T01:35:02;11.65;;;10.85;;
21543;SDS011;10933;50.754;11.508;2023-06-10T01:37:30;11.10;;;10.50;;
21543;SDS011;10933;50.754;11.508;2023-06-10T01:40:00;11.07;;;10.32;;
21543;SDS011;10933;50.754;11.508;2023-06-10T01:42:30;10.63;;;10.10;;
21543;SDS011;10933;50.754;11.508;2023-06-10T01:44:58;11.32;;;10.73;;
21543;SDS011;10933;50.754;11.508;2023-06-10T01:47:24;10.10;;;9.50;;
21543;SDS011;10933;50.754;11.508;2023-06-10T01:49:51;11.25;;;10.38;;
21543;SDS011;10933;50.754;11.508;2023-06-10T01:52:17;10.63;;;10.02;;
21543;SDS011;10933;50.754;11.508;2023-06-10T01:54:43;10.40;;;9.88;;
21543;SDS011;10933;50.754;11.508;2023-06-10T01:57:09;11.68;;;11.00;;
21543;SDS011;10933;50.754;11.508;2023-06-10T01:59:36;11.65;;;10.85;;
21543;SDS011;10933;50.754;11.508;2023-06-10T02:02:03;11.45;;;10.85;;
21543;SDS011;10933;50.754;11.508;2023-06-10T02:04:30;12.85;;;12.15;;
21543;SDS011;10933;50.754;11.508;2023-06-10T02:06:56;13.40;;;12.68;;
21543;SDS011;10933;50.754;11.508;2023-06-10T02:09:23;12.30;;;11.40;;
21543;SDS011;10933;50.754;11.508;2023-06-10T02:11:49;11.85;;;11.15;;
21543;SDS011;10933;50.754;11.508;2023-06-10T02:14:15;11.57;;;10.95;;
21543;SDS011;10933;50.754;11.508;2023-06-10T02:16:42;13.65;;;12.48;;
21543;SDS011;10933;50.754;11.508;2023-06-10T02:19:10;11.60;;;10.90;;
21543;SDS011;10933;50.754;11.508;2023-06-10T02:21:37;12.70;;;12.00;;
21543;SDS011;10933;50.754;11.508;2023-06-10T02:24:03;13.30;;;12.40;;
21543;SDS011;10933;50.754;11.508;2023-06-10T02:26:30;12.93;;;12.23;;
21543;SDS011;10933;50.754;11.508;2023-06-10T02:28:57;13.93;;;13.15;;
21543;SDS011;10933;50.754;11.508;2023-06-10T02:31:23;13.90;;;13.00;;
21543;SDS011;10933;50.754;11.508;2023-06-10T02:33:50;13.88;;;13.02;;
21543;SDS011;10933;50.754;11.508;2023-06-10T02:36:16;13.02;;;12.32;;
21543;SDS011;10933;50.754;11.508;2023-06-10T02:38:42;13.00;;;12.30;;
21543;SDS011;10933;50.754;11.508;2023-06-10T02:41:08;13.32;;;12.52;;
21543;SDS011;10933;50.754;11.508;2023-06-10T02:43:35;13.50;;;12.80;;
21543;SDS011;10933;50.754;11.508;2023-06-10T02:46:01;13.02;;;12.32;;
21543;SDS011;10933;50.754;11.508;2023-06-10T02:48:27;13.55;;;12.80;;
21543;SDS011;10933;50.754;11.508;2023-06-10T02:50:53;13.15;;;12.35;;
21543;SDS011;10933;50.754;11.508;2023-06-10T02:53:21;13.35;;;12.55;;
21543;SDS011;10933;50.754;11.508;2023-06-10T02:55:47;13.45;;;12.75;;
21543;SDS011;10933;50.754;11.508;2023-06-10T02:58:13;13.88;;;13.10;;
21543;SDS011;10933;50.754;11.508;2023-06-10T03:00:40;13.95;;;13.05;;
21543;SDS011;10933;50.754;11.508;2023-06-10T03:03:07;13.63;;;12.63;;
21543;SDS011;10933;50.754;11.508;2023-06-10T03:05:35;13.43;;;12.63;;
21543;SDS011;10933;50.754;11.508;2023-06-10T03:08:01;13.30;;;12.52;;
21543;SDS011;10933;50.754;11.508;2023-06-10T03:10:27;13.77;;;13.05;;
21543;SDS011;10933;50.754;11.508;2023-06-10T03:12:54;13.88;;;13.00;;
21543;SDS011;10933;50.754;11.508;2023-06-10T03:15:20;12.57;;;11.95;;
21543;SDS011;10933;50.754;11.508;2023-06-10T03:17:46;14.50;;;13.25;;
21543;SDS011;10933;50.754;11.508;2023-06-10T03:20:12;12.73;;;11.93;;
21543;SDS011;10933;50.754;11.508;2023-06-10T03:22:40;12.85;;;12.15;;
21543;SDS011;10933;50.754;11.508;2023-06-10T03:25:07;12.77;;;12.07;;
21543;SDS011;10933;50.754;11.508;2023-06-10T03:27:38;12.80;;;12.00;;
21543;SDS011;10933;50.754;11.508;2023-06-10T03:30:05;12.85;;;12.13;;
21543;SDS011;10933;50.754;11.508;2023-06-10T03:32:32;12.88;;;12.18;;
21543;SDS011;10933;50.754;11.508;2023-06-10T03:34:58;12.35;;;11.65;;
21543;SDS011;10933;50.754;11.508;2023-06-10T03:37:24;12.63;;;11.93;;
21543;SDS011;10933;50.754;11.508;2023-06-10T03:39:51;13.05;;;12.32;;
21543;SDS011;10933;50.754;11.508;2023-06-10T03:42:17;12.20;;;11.60;;
21543;SDS011;10933;50.754;11.508;2023-06-10T03:44:43;12.10;;;11.40;;
21543;SDS011;10933;50.754;11.508;2023-06-10T03:47:09;12.57;;;11.77;;
21543;SDS011;10933;50.754;11.508;2023-06-10T03:49:35;13.07;;;12.18;;
21543;SDS011;10933;50.754;11.508;2023-06-10T03:52:02;13.07;;;12.30;;
21543;SDS011;10933;50.754;11.508;2023-06-10T03:54:28;12.85;;;12.15;;
21543;SDS011;10933;50.754;11.508;2023-06-10T03:56:56;13.85;;;12.98;;
21543;SDS011;10933;50.754;11.508;2023-06-10T03:59:22;12.30;;;11.25;;
21543;SDS011;10933;50.754;11.508;2023-06-10T04:01:49;12.48;;;11.68;;
21543;SDS011;10933;50.754;11.508;2023-06-10T04:04:15;13.27;;;12.57;;
21543;SDS011;10933;50.754;11.508;2023-06-10T04:06:44;12.43;;;11.82;;
21543;SDS011;10933;50.754;11.508;2023-06-10T04:09:10;13.10;;;12.30;;
21543;SDS011;10933;50.754;11.508;2023-06-10T04:11:40;12.55;;;11.60;;
21543;SDS011;10933;50.754;11.508;2023-06-10T04:14:06;11.75;;;11.15;;
21543;SDS011;10933;50.754;11.508;2023-06-10T04:16:33;12.02;;;11.43;;
21543;SDS011;10933;50.754;11.508;2023-06-10T04:19:00;11.88;;;11.27;;
21543;SDS011;10933;50.754;11.508;2023-06-10T04:21:26;11.75;;;11.15;;
21543;SDS011;10933;50.754;11.508;2023-06-10T04:23:52;11.02;;;10.43;;
21543;SDS011;10933;50.754;11.508;2023-06-10T04:26:18;11.93;;;11.13;;
21543;SDS011;10933;50.754;11.508;2023-06-10T04:28:45;10.90;;;10.30;;
21543;SDS011;10933;50.754;11.508;2023-06-10T04:31:11;10.68;;;10.07;;
21543;SDS011;10933;50.754;11.508;2023-06-10T04:33:38;10.90;;;10.30;;
21543;SDS011;10933;50.754;11.508;2023-06-10T04:36:04;10.77;;;10.18;;
21543;SDS011;10933;50.754;11.508;2023-06-10T04:38:32;10.07;;;9.52;;
21543;SDS011;10933;50.754;11.508;2023-06-10T04:40:58;10.32;;;9.75;;
21543;SDS011;10933;50.754;11.508;2023-06-10T04:43:25;10.30;;;9.80;;
21543;SDS011;10933;50.754;11.508;2023-06-10T04:45:53;10.15;;;9.65;;
21543;SDS011;10933;50.754;11.508;2023-06-10T04:48:20;10.02;;;9.32;;
21543;SDS011;10933;50.754;11.508;2023-06-10T04:50:46;10.82;;;10.30;;
21543;SDS011;10933;50.754;11.508;2023-06-10T04:53:12;10.85;;;10.30;;
21543;SDS011;10933;50.754;11.508;2023-06-10T04:55:40;10.32;;;9.65;;
21543;SDS011;10933;50.754;11.508;2023-06-10T04:58:06;10.27;;;9.55;;
21543;SDS011;10933;50.754;11.508;2023-06-10T05:00:32;10.07;;;9.57;;
21543;SDS011;10933;50.754;11.508;2023-06-10T05:02:59;11.48;;;10.88;;
21543;SDS011;10933;50.754;11.508;2023-06-10T05:05:25;10.25;;;9.75;;
21543;SDS011;10933;50.754;11.508;2023-06-10T05:07:51;12.07;;;11.38;;
21543;SDS011;10933;50.754;11.508;2023-06-10T05:10:17;10.88;;;10.27;;
21543;SDS011;10933;50.754;11.508;2023-06-10T05:12:43;10.23;;;9.73;;
21543;SDS011;10933;50.754;11.508;2023-06-10T05:15:10;10.30;;;9.80;;
21543;SDS011;10933;50.754;11.508;2023-06-10T05:17:36;10.65;;;9.80;;
21543;SDS011;10933;50.754;11.508;2023-06-10T05:20:03;10.68;;;10.10;;
21543;SDS011;10933;50.754;11.508;2023-06-10T05:22:29;10.35;;;9.85;;
21543;SDS011;10933;50.754;11.508;2023-06-10T05:24:55;11.05;;;10.27;;
21543;SDS011;10933;50.754;11.508;2023-06-10T05:27:22;10.88;;;10.38;;
21543;SDS011;10933;50.754;11.508;2023-06-10T05:29:48;11.23;;;10.65;;
21543;SDS011;10933;50.754;11.508;2023-06-10T05:32:14;11.23;;;10.43;;
21543;SDS011;10933;50.754;11.508;2023-06-10T05:34:40;10.65;;;10.05;;
21543;SDS011;10933;50.754;11.508;2023-06-10T05:37:06;10.07;;;9.48;;
21543;SDS011;10933;50.754;11.508;2023-06-10T05:39:32;10.25;;;9.75;;
21543;SDS011;10933;50.754;11.508;2023-06-10T05:42:02;10.50;;;9.48;;
21543;SDS011;10933;50.754;11.508;2023-06-10T05:44:29;9.70;;;9.20;;
21543;SDS011;10933;50.754;11.508;2023-06-10T05:46:55;9.52;;;9.13;;
21543;SDS011;10933;50.754;11.508;2023-06-10T05:49:22;9.32;;;8.93;;
21543;SDS011;10933;50.754;11.508;2023-06-10T05:51:48;9.25;;;8.80;;
21543;SDS011;10933;50.754;11.508;2023-06-10T05:54:14;7.95;;;7.55;;
21543;SDS011;10933;50.754;11.508;2023-06-10T05:56:40;9.15;;;8.68;;
21543;SDS011;10933;50.754;11.508;2023-06-10T05:59:06;8.38;;;7.88;;
21543;SDS011;10933;50.754;11.508;2023-06-10T06:01:32;7.80;;;7.30;;
21543;SDS011;10933;50.754;11.508;2023-06-10T06:03:59;7.50;;;7.10;;
21543;SDS011;10933;50.754;11.508;2023-06-10T06:06:25;6.80;;;6.50;;
21543;SDS011;10933;50.754;11.508;2023-06-10T06:08:51;6.93;;;6.10;;
21543;SDS011;10933;50.754;11.508;2023-06-10T06:11:17;7.68;;;7.07;;
21543;SDS011;10933;50.754;11.508;2023-06-10T06:13:43;6.28;;;5.88;;
21543;SDS011;10933;50.754;11.508;2023-06-10T06:16:09;8.15;;;6.47;;
21543;SDS011;10933;50.754;11.508;2023-06-10T06:18:35;7.32;;;6.25;;
21543;SDS011;10933;50.754;11.508;2023-06-10T06:21:02;6.10;;;5.70;;
21543;SDS011;10933;50.754;11.508;2023-06-10T06:23:28;5.85;;;5.55;;
21543;SDS011;10933;50.754;11.508;2023-06-10T06:25:55;6.40;;;6.00;;
21543;SDS011;10933;50.754;11.508;2023-06-10T06:28:21;6.68;;;6.18;;
21543;SDS011;10933;50.754;11.508;2023-06-10T06:30:47;8.48;;;6.57;;
21543;SDS011;10933;50.754;11.508;2023-06-10T06:33:16;6.68;;;6.28;;
21543;SDS011;10933;50.754;11.508;2023-06-10T06:35:45;6.20;;;5.70;;
21543;SDS011;10933;50.754;11.508;2023-06-10T06:38:12;6.53;;;5.97;;
21543;SDS011;10933;50.754;11.508;2023-06-10T06:40:38;5.95;;;5.45;;
21543;SDS011;10933;50.754;11.508;2023-06-10T06:43:04;5.78;;;5.47;;
21543;SDS011;10933;50.754;11.508;2023-06-10T06:45:30;6.45;;;5.95;;
21543;SDS011;10933;50.754;11.508;2023-06-10T06:47:58;6.00;;;5.60;;
21543;SDS011;10933;50.754;11.508;2023-06-10T06:50:25;5.15;;;4.85;;
21543;SDS011;10933;50.754;11.508;2023-06-10T06:52:51;5.00;;;4.70;;
21543;SDS011;10933;50.754;11.508;2023-06-10T06:55:17;5.15;;;4.75;;
21543;SDS011;10933;50.754;11.508;2023-06-10T06:57:43;4.65;;;4.40;;
21543;SDS011;10933;50.754;11.508;2023-06-10T07:00:09;5.20;;;4.80;;
21543;SDS011;10933;50.754;11.508;2023-06-10T07:02:36;5.55;;;5.05;;
21543;SDS011;10933;50.754;11.508;2023-06-10T07:05:02;4.85;;;4.55;;
21543;SDS011;10933;50.754;11.508;2023-06-10T07:07:28;5.07;;;4.68;;
21543;SDS011;10933;50.754;11.508;2023-06-10T07:09:55;5.03;;;4.63;;
21543;SDS011;10933;50.754;11.508;2023-06-10T07:12:21;4.90;;;4.60;;
21543;SDS011;10933;50.754;11.508;2023-06-10T07:14:49;6.20;;;4.28;;
21543;SDS011;10933;50.754;11.508;2023-06-10T07:17:16;4.70;;;4.40;;
21543;SDS011;10933;50.754;11.508;2023-06-10T07:19:43;4.70;;;4.50;;
21543;SDS011;10933;50.754;11.508;2023-06-10T07:22:10;4.53;;;4.28;;
21543;SDS011;10933;50.754;11.508;2023-06-10T07:24:36;4.97;;;4.47;;
21543;SDS011;10933;50.754;11.508;2023-06-10T07:27:02;5.00;;;4.70;;
21543;SDS011;10933;50.754;11.508;2023-06-10T07:29:29;4.60;;;4.30;;
21543;SDS011;10933;50.754;11.508;2023-06-10T07:31:55;4.82;;;4.53;;
21543;SDS011;10933;50.754;11.508;2023-06-10T07:34:21;4.43;;;4.20;;
21543;SDS011;10933;50.754;11.508;2023-06-10T07:36:47;4.68;;;4.47;;
21543;SDS011;10933;50.754;11.508;2023-06-10T07:39:13;4.85;;;4.53;;
21543;SDS011;10933;50.754;11.508;2023-06-10T07:41:40;6.75;;;4.63;;
21543;SDS011;10933;50.754;11.508;2023-06-10T07:44:06;5.18;;;4.88;;
21543;SDS011;10933;50.754;11.508;2023-06-10T07:46:32;4.60;;;4.40;;
21543;SDS011;10933;50.754;11.508;2023-06-10T07:48:58;4.60;;;4.30;;
21543;SDS011;10933;50.754;11.508;2023-06-10T07:51:24;5.70;;;4.90;;
21543;SDS011;10933;50.754;11.508;2023-06-10T07:53:50;4.97;;;4.60;;
21543;SDS011;10933;50.754;11.508;2023-06-10T07:56:16;4.57;;;4.22;;
21543;SDS011;10933;50.754;11.508;2023-06-10T07:58:43;4.20;;;4.00;;
21543;SDS011;10933;50.754;11.508;2023-06-10T08:01:09;5.22;;;4.82;;
21543;SDS011;10933;50.754;11.508;2023-06-10T08:03:35;4.63;;;4.35;;
21543;SDS011;10933;50.754;11.508;2023-06-10T08:06:01;4.20;;;4.00;;
21543;SDS011;10933;50.754;11.508;2023-06-10T08:08:28;4.82;;;4.53;;
21543;SDS011;10933;50.754;11.508;2023-06-10T08:10:54;4.93;;;4.63;;
21543;SDS011;10933;50.754;11.508;2023-06-10T08:13:20;4.72;;;4.43;;
21543;SDS011;10933;50.754;11.508;2023-06-10T08:15:47;5.15;;;4.68;;
21543;SDS011;10933;50.754;11.508;2023-06-10T08:18:15;4.60;;;4.40;;
21543;SDS011;10933;50.754;11.508;2023-06-10T08:20:42;4.85;;;4.55;;
21543;SDS011;10933;50.754;11.508;2023-06-10T08:23:08;4.00;;;3.80;;
21543;SDS011;10933;50.754;11.508;2023-06-10T08:25:34;5.18;;;4.25;;
21543;SDS011;10933;50.754;11.508;2023-06-10T08:28:00;4.80;;;4.20;;
21543;SDS011;10933;50.754;11.508;2023-06-10T08:30:26;5.82;;;4.30;;
21543;SDS011;10933;50.754;11.508;2023-06-10T08:32:53;4.53;;;4.13;;
21543;SDS011;10933;50.754;11.508;2023-06-10T08:35:20;4.40;;;4.10;;
21543;SDS011;10933;50.754;11.508;2023-06-10T08:37:46;4.65;;;4.35;;
21543;SDS011;10933;50.754;11.508;2023-06-10T08:40:12;5.57;;;5.18;;
21543;SDS011;10933;50.754;11.508;2023-06-10T08:42:40;5.10;;;4.80;;
21543;SDS011;10933;50.754;11.508;2023-06-10T08:45:16;4.47;;;4.07;;
21543;SDS011;10933;50.754;11.508;2023-06-10T08:47:44;4.80;;;4.50;;
21543;SDS011;10933;50.754;11.508;2023-06-10T08:50:11;4.65;;;4.40;;
21543;SDS011;10933;50.754;11.508;2023-06-10T08:52:41;4.05;;;3.85;;
21543;SDS011;10933;50.754;11.508;2023-06-10T08:55:21;4.82;;;4.53;;
21543;SDS011;10933;50.754;11.508;2023-06-10T08:57:54;4.43;;;4.13;;
21543;SDS011;10933;50.754;11.508;2023-06-10T09:00:21;5.10;;;4.63;;
21543;SDS011;10933;50.754;11.508;2023-06-10T09:02:47;4.40;;;4.15;;
21543;SDS011;10933;50.754;11.508;2023-06-10T09:05:13;4.82;;;4.47;;
21543;SDS011;10933;50.754;11.508;2023-06-10T09:07:40;5.15;;;4.72;;
21543;SDS011;10933;50.754;11.508;2023-06-10T09:10:07;4.25;;;3.72;;
21543;SDS011;10933;50.754;11.508;2023-06-10T09:12:33;5.20;;;4.80;;
21543;SDS011;10933;50.754;11.508;2023-06-10T09:15:01;5.25;;;4.85;;
21543;SDS011;10933;50.754;11.508;2023-06-10T09:17:27;4.93;;;4.65;;
21543;SDS011;10933;50.754;11.508;2023-06-10T09:19:54;5.35;;;5.05;;
21543;SDS011;10933;50.754;11.508;2023-06-10T09:22:22;5.38;;;5.05;;
21543;SDS011;10933;50.754;11.508;2023-06-10T09:24:51;47.13;;;9.45;;
21543;SDS011;10933;50.754;11.508;2023-06-10T09:27:47;5.45;;;5.05;;
21543;SDS011;10933;50.754;11.508;2023-06-10T09:32:54;4.82;;;4.57;;
21543;SDS011;10933;50.754;11.508;2023-06-10T09:35:22;4.78;;;4.47;;
21543;SDS011;10933;50.754;11.508;2023-06-10T09:37:51;4.97;;;4.68;;
21543;SDS011;10933;50.754;11.508;2023-06-10T09:40:18;5.20;;;4.90;;
21543;SDS011;10933;50.754;11.508;2023-06-10T09:42:45;5.22;;;4.93;;
21543;SDS011;10933;50.754;11.508;2023-06-10T09:45:14;10.70;;;5.80;;
21543;SDS011;10933;50.754;11.508;2023-06-10T09:47:40;5.18;;;4.88;;
21543;SDS011;10933;50.754;11.508;2023-06-10T09:50:07;4.72;;;4.50;;
21543;SDS011;10933;50.754;11.508;2023-06-10T09:52:33;5.82;;;5.43;;
21543;SDS011;10933;50.754;11.508;2023-06-10T09:55:02;5.47;;;5.07;;
21543;SDS011;10933;50.754;11.508;2023-06-10T09:57:31;5.70;;;5.40;;
21543;SDS011;10933;50.754;11.508;2023-06-10T09:59:58;5.00;;;4.70;;
21543;SDS011;10933;50.754;11.508;2023-06-10T10:02:29;5.00;;;4.70;;
21543;SDS011;10933;50.754;11.508;2023-06-10T10:05:01;4.75;;;4.45;;
21543;SDS011;10933;50.754;11.508;2023-06-10T10:07:29;5.68;;;5.38;;
21543;SDS011;10933;50.754;11.508;2023-06-10T10:09:55;4.60;;;4.38;;
21543;SDS011;10933;50.754;11.508;2023-06-10T10:12:22;5.03;;;4.78;;
21543;SDS011;10933;50.754;11.508;2023-06-10T10:14:51;4.95;;;4.75;;
21543;SDS011;10933;50.754;11.508;2023-06-10T10:17:20;5.45;;;5.15;;
21543;SDS011;10933;50.754;11.508;2023-06-10T10:19:50;5.15;;;4.85;;
21543;SDS011;10933;50.754;11.508;2023-06-10T10:22:37;5.25;;;4.95;;
21543;SDS011;10933;50.754;11.508;2023-06-10T10:25:08;5.30;;;5.00;;
21543;SDS011;10933;50.754;11.508;2023-06-10T10:30:27;5.45;;;5.10;;
21543;SDS011;10933;50.754;11.508;2023-06-10T10:33:00;5.13;;;4.88;;
21543;SDS011;10933;50.754;11.508;2023-06-10T10:35:30;6.22;;;5.72;;
21543;SDS011;10933;50.754;11.508;2023-06-10T10:37:59;6.57;;;6.18;;
21543;SDS011;10933;50.754;11.508;2023-06-10T10:40:27;5.90;;;5.53;;
21543;SDS011;10933;50.754;11.508;2023-06-10T10:42:54;5.90;;;5.60;;
21543;SDS011;10933;50.754;11.508;2023-06-10T10:45:23;8.45;;;5.38;;
21543;SDS011;10933;50.754;11.508;2023-06-10T10:47:52;5.47;;;5.18;;
21543;SDS011;10933;50.754;11.508;2023-06-10T10:50:22;5.15;;;4.85;;
21543;SDS011;10933;50.754;11.508;2023-06-10T10:52:57;5.20;;;4.90;;
21543;SDS011;10933;50.754;11.508;2023-06-10T10:55:27;5.43;;;5.13;;
21543;SDS011;10933;50.754;11.508;2023-06-10T10:57:54;5.38;;;4.97;;
21543;SDS011;10933;50.754;11.508;2023-06-10T11:00:24;5.78;;;5.38;;
21543;SDS011;10933;50.754;11.508;2023-06-10T11:02:58;5.63;;;5.32;;
21543;SDS011;10933;50.754;11.508;2023-06-10T11:08:04;5.97;;;5.65;;
21543;SDS011;10933;50.754;11.508;2023-06-10T11:10:38;7.00;;;6.10;;
21543;SDS011;10933;50.754;11.508;2023-06-10T11:13:08;7.07;;;6.57;;
21543;SDS011;10933;50.754;11.508;2023-06-10T11:15:44;7.07;;;6.50;;
21543;SDS011;10933;50.754;11.508;2023-06-10T11:31:18;7.43;;;7.03;;
21543;SDS011;10933;50.754;11.508;2023-06-10T11:33:46;7.88;;;7.45;;
21543;SDS011;10933;50.754;11.508;2023-06-10T11:36:13;7.82;;;7.20;;
21543;SDS011;10933;50.754;11.508;2023-06-10T11:38:40;9.15;;;8.20;;
21543;SDS011;10933;50.754;11.508;2023-06-10T11:41:07;8.18;;;7.57;;
21543;SDS011;10933;50.754;11.508;2023-06-10T11:43:33;7.88;;;7.40;;
21543;SDS011;10933;50.754;11.508;2023-06-10T11:46:00;8.65;;;8.15;;
21543;SDS011;10933;50.754;11.508;2023-06-10T11:48:27;7.38;;;6.70;;
21543;SDS011;10933;50.754;11.508;2023-06-10T11:50:56;6.78;;;6.38;;
21543;SDS011;10933;50.754;11.508;2023-06-10T11:53:22;6.70;;;6.03;;
21543;SDS011;10933;50.754;11.508;2023-06-10T11:55:50;6.68;;;6.28;;
21543;SDS011;10933;50.754;11.508;2023-06-10T11:58:20;7.20;;;6.82;;
21543;SDS011;10933;50.754;11.508;2023-06-10T12:00:51;6.88;;;6.53;;
21543;SDS011;10933;50.754;11.508;2023-06-10T12:03:18;6.22;;;5.93;;
21543;SDS011;10933;50.754;11.508;2023-06-10T12:05:54;6.80;;;6.40;;
21543;SDS011;10933;50.754;11.508;2023-06-10T12:08:25;6.65;;;6.35;;
21543;SDS011;10933;50.754;11.508;2023-06-10T12:10:52;6.25;;;5.88;;
21543;SDS011;10933;50.754;11.508;2023-06-10T12:13:19;6.35;;;5.95;;
21543;SDS011;10933;50.754;11.508;2023-06-10T12:15:46;6.07;;;5.78;;
21543;SDS011;10933;50.754;11.508;2023-06-10T12:18:16;5.60;;;5.30;;
21543;SDS011;10933;50.754;11.508;2023-06-10T12:20:47;5.70;;;5.35;;
21543;SDS011;10933;50.754;11.508;2023-06-10T12:23:15;5.97;;;5.68;;
21543;SDS011;10933;50.754;11.508;2023-06-10T12:25:53;6.35;;;5.80;;
21543;SDS011;10933;50.754;11.508;2023-06-10T12:28:23;5.72;;;5.32;;
21543;SDS011;10933;50.754;11.508;2023-06-10T12:30:50;5.70;;;5.35;;
21543;SDS011;10933;50.754;11.508;2023-06-10T12:33:30;5.30;;;4.80;;
21543;SDS011;10933;50.754;11.508;2023-06-10T12:35:56;5.00;;;4.70;;
21543;SDS011;10933;50.754;11.508;2023-06-10T12:38:25;4.72;;;4.47;;
21543;SDS011;10933;50.754;11.508;2023-06-10T12:40:52;5.53;;;4.40;;
21543;SDS011;10933;50.754;11.508;2023-06-10T12:43:24;4.32;;;4.07;;
21543;SDS011;10933;50.754;11.508;2023-06-10T12:45:51;4.70;;;4.38;;
21543;SDS011;10933;50.754;11.508;2023-06-10T12:48:21;4.18;;;3.88;;
21543;SDS011;10933;50.754;11.508;2023-06-10T12:50:55;4.13;;;3.80;;
21543;SDS011;10933;50.754;11.508;2023-06-10T12:53:23;4.03;;;3.55;;
21543;SDS011;10933;50.754;11.508;2023-06-10T12:55:51;3.83;;;3.53;;
21543;SDS011;10933;50.754;11.508;2023-06-10T12:58:21;3.08;;;2.97;;
21543;SDS011;10933;50.754;11.508;2023-06-10T13:00:48;3.80;;;3.60;;
21543;SDS011;10933;50.754;11.508;2023-06-10T13:03:17;4.10;;;3.90;;
21543;SDS011;10933;50.754;11.508;2023-06-10T13:05:43;4.20;;;4.00;;
21543;SDS011;10933;50.754;11.508;2023-06-10T13:08:09;3.70;;;3.47;;
21543;SDS011;10933;50.754;11.508;2023-06-10T13:10:36;3.95;;;3.75;;
21543;SDS011;10933;50.754;11.508;2023-06-10T13:13:03;3.67;;;3.47;;
21543;SDS011;10933;50.754;11.508;2023-06-10T13:15:32;5.60;;;3.53;;
21543;SDS011;10933;50.754;11.508;2023-06-10T13:18:02;3.58;;;3.30;;
21543;SDS011;10933;50.754;11.508;2023-06-10T13:20:29;4.22;;;4.03;;
21543;SDS011;10933;50.754;11.508;2023-06-10T13:22:55;3.70;;;3.50;;
21543;SDS011;10933;50.754;11.508;2023-06-10T13:25:22;3.45;;;3.15;;
21543;SDS011;10933;50.754;11.508;2023-06-10T13:27:48;4.20;;;3.90;;
21543;SDS011;10933;50.754;11.508;2023-06-10T13:30:14;3.45;;;3.35;;
21543;SDS011;10933;50.754;11.508;2023-06-10T13:32:40;3.83;;;3.63;;
21543;SDS011;10933;50.754;11.508;2023-06-10T13:35:07;3.58;;;3.38;;
21543;SDS011;10933;50.754;11.508;2023-06-10T13:37:33;3.47;;;3.38;;
21543;SDS011;10933;50.754;11.508;2023-06-10T13:40:00;3.92;;;3.72;;
21543;SDS011;10933;50.754;11.508;2023-06-10T13:42:27;3.10;;;2.90;;
21543;SDS011;10933;50.754;11.508;2023-06-10T13:44:54;3.80;;;3.60;;
21543;SDS011;10933;50.754;11.508;2023-06-10T13:47:21;3.20;;;3.00;;
21543;SDS011;10933;50.754;11.508;2023-06-10T13:49:47;3.60;;;3.40;;
21543;SDS011;10933;50.754;11.508;2023-06-10T13:52:13;3.20;;;3.00;;
21543;SDS011;10933;50.754;11.508;2023-06-10T13:54:40;3.85;;;3.65;;
21543;SDS011;10933;50.754;11.508;2023-06-10T13:57:06;3.22;;;3.13;;
21543;SDS011;10933;50.754;11.508;2023-06-10T13:59:35;3.90;;;3.67;;
21543;SDS011;10933;50.754;11.508;2023-06-10T14:02:01;3.60;;;3.40;;
21543;SDS011;10933;50.754;11.508;2023-06-10T14:04:27;3.22;;;3.08;;
21543;SDS011;10933;50.754;11.508;2023-06-10T14:06:53;3.13;;;3.03;;
21543;SDS011;10933;50.754;11.508;2023-06-10T14:09:20;3.08;;;2.90;;
21543;SDS011;10933;50.754;11.508;2023-06-10T14:11:47;3.10;;;2.90;;
21543;SDS011;10933;50.754;11.508;2023-06-10T14:14:13;3.00;;;2.80;;
21543;SDS011;10933;50.754;11.508;2023-06-10T14:16:39;2.60;;;2.50;;
21543;SDS011;10933;50.754;11.508;2023-06-10T14:19:06;3.03;;;2.88;;
21543;SDS011;10933;50.754;11.508;2023-06-10T14:21:32;2.10;;;2.00;;
21543;SDS011;10933;50.754;11.508;2023-06-10T14:23:58;2.60;;;2.40;;
21543;SDS011;10933;50.754;11.508;2023-06-10T14:26:24;2.45;;;2.28;;
21543;SDS011;10933;50.754;11.508;2023-06-10T14:28:51;2.60;;;2.40;;
21543;SDS011;10933;50.754;11.508;2023-06-10T14:31:17;4.75;;;2.65;;
21543;SDS011;10933;50.754;11.508;2023-06-10T14:33:43;2.80;;;2.65;;
21543;SDS011;10933;50.754;11.508;2023-06-10T14:36:10;2.80;;;2.70;;
21543;SDS011;10933;50.754;11.508;2023-06-10T14:38:36;3.70;;;2.92;;
21543;SDS011;10933;50.754;11.508;2023-06-10T14:41:02;2.80;;;2.70;;
21543;SDS011;10933;50.754;11.508;2023-06-10T14:43:28;3.17;;;2.97;;
21543;SDS011;10933;50.754;11.508;2023-06-10T14:45:55;3.25;;;3.05;;
21543;SDS011;10933;50.754;11.508;2023-06-10T14:48:22;3.33;;;2.97;;
21543;SDS011;10933;50.754;11.508;2023-06-10T14:50:48;3.35;;;3.13;;